sensor_id;sensor_type;location;lat;lon;timestamp;P1;durP1;ratioP1;P2;durP2;ratioP2
68365;SDS011;55283;51.466;5.478;2023-06-04T00:01:57;1.52;;;1.25;;
68365;SDS011;55283;51.466;5.478;2023-06-04T00:04:25;1.23;;;1.13;;
68365;SDS011;55283;51.466;5.478;2023-06-04T00:06:50;1.27;;;1.17;;
68365;SDS011;55283;51.466;5.478;2023-06-04T00:09:16;1.75;;;1.10;;
68365;SDS011;55283;51.466;5.478;2023-06-04T00:11:41;1.17;;;1.07;;
68365;SDS011;55283;51.466;5.478;2023-06-04T00:14:06;1.30;;;1.20;;
68365;SDS011;55283;51.466;5.478;2023-06-04T00:16:32;1.30;;;1.20;;
68365;SDS011;55283;51.466;5.478;2023-06-04T00:19:00;1.33;;;1.10;;
68365;SDS011;55283;51.466;5.478;2023-06-04T00:21:26;1.30;;;1.20;;
68365;SDS011;55283;51.466;5.478;2023-06-04T00:23:51;1.37;;;1.27;;
68365;SDS011;55283;51.466;5.478;2023-06-04T00:26:19;1.35;;;1.10;;
68365;SDS011;55283;51.466;5.478;2023-06-04T00:28:45;1.40;;;1.30;;
68365;SDS011;55283;51.466;5.478;2023-06-04T00:31:10;1.53;;;1.10;;
68365;SDS011;55283;51.466;5.478;2023-06-04T00:33:38;1.80;;;1.30;;
68365;SDS011;55283;51.466;5.478;2023-06-04T00:36:04;1.85;;;1.20;;
68365;SDS011;55283;51.466;5.478;2023-06-04T00:38:29;2.10;;;1.20;;
68365;SDS011;55283;51.466;5.478;2023-06-04T00:40:55;1.07;;;0.97;;
68365;SDS011;55283;51.466;5.478;2023-06-04T00:43:20;1.30;;;1.00;;
68365;SDS011;55283;51.466;5.478;2023-06-04T00:45:46;1.27;;;1.10;;
68365;SDS011;55283;51.466;5.478;2023-06-04T00:48:11;1.07;;;1.03;;
68365;SDS011;55283;51.466;5.478;2023-06-04T00:50:37;1.47;;;1.10;;
68365;SDS011;55283;51.466;5.478;2023-06-04T00:53:05;3.13;;;1.20;;
68365;SDS011;55283;51.466;5.478;2023-06-04T00:55:31;1.70;;;1.10;;
68365;SDS011;55283;51.466;5.478;2023-06-04T00:57:56;1.40;;;1.30;;
68365;SDS011;55283;51.466;5.478;2023-06-04T01:00:22;1.42;;;1.30;;
68365;SDS011;55283;51.466;5.478;2023-06-04T01:02:48;1.90;;;1.17;;
68365;SDS011;55283;51.466;5.478;2023-06-04T01:05:24;2.27;;;1.40;;
68365;SDS011;55283;51.466;5.478;2023-06-04T01:07:55;1.80;;;1.40;;
68365;SDS011;55283;51.466;5.478;2023-06-04T01:10:22;1.55;;;1.20;;
68365;SDS011;55283;51.466;5.478;2023-06-04T01:12:47;2.30;;;1.00;;
68365;SDS011;55283;51.466;5.478;2023-06-04T01:15:15;1.08;;;1.05;;
68365;SDS011;55283;51.466;5.478;2023-06-04T01:17:41;1.17;;;1.00;;
68365;SDS011;55283;51.466;5.478;2023-06-04T01:25:25;1.83;;;1.08;;
68365;SDS011;55283;51.466;5.478;2023-06-04T01:28:02;1.20;;;1.00;;
68365;SDS011;55283;51.466;5.478;2023-06-04T01:30:30;1.63;;;1.00;;
68365;SDS011;55283;51.466;5.478;2023-06-04T01:32:58;1.17;;;0.90;;
68365;SDS011;55283;51.466;5.478;2023-06-04T01:35:25;3.83;;;0.80;;
68365;SDS011;55283;51.466;5.478;2023-06-04T01:37:51;1.10;;;1.00;;
68365;SDS011;55283;51.466;5.478;2023-06-04T01:40:16;0.93;;;0.90;;
68365;SDS011;55283;51.466;5.478;2023-06-04T01:42:42;4.50;;;1.00;;
68365;SDS011;55283;51.466;5.478;2023-06-04T01:45:10;1.38;;;1.15;;
68365;SDS011;55283;51.466;5.478;2023-06-04T01:47:36;1.67;;;1.00;;
68365;SDS011;55283;51.466;5.478;2023-06-04T01:50:04;1.30;;;1.10;;
68365;SDS011;55283;51.466;5.478;2023-06-04T01:52:37;1.50;;;1.10;;
68365;SDS011;55283;51.466;5.478;2023-06-04T01:55:03;1.10;;;1.00;;
68365;SDS011;55283;51.466;5.478;2023-06-04T01:57:39;1.40;;;1.00;;
68365;SDS011;55283;51.466;5.478;2023-06-04T02:00:09;1.13;;;0.90;;
68365;SDS011;55283;51.466;5.478;2023-06-04T02:02:36;3.03;;;0.90;;
68365;SDS011;55283;51.466;5.478;2023-06-04T02:05:03;1.02;;;0.90;;
68365;SDS011;55283;51.466;5.478;2023-06-04T02:07:33;1.15;;;0.90;;
68365;SDS011;55283;51.466;5.478;2023-06-04T02:10:05;1.10;;;1.00;;
68365;SDS011;55283;51.466;5.478;2023-06-04T02:12:31;1.30;;;1.20;;
68365;SDS011;55283;51.466;5.478;2023-06-04T02:14:56;1.58;;;1.30;;
68365;SDS011;55283;51.466;5.478;2023-06-04T02:17:22;1.20;;;1.10;;
68365;SDS011;55283;51.466;5.478;2023-06-04T02:19:50;2.17;;;1.40;;
68365;SDS011;55283;51.466;5.478;2023-06-04T02:22:19;1.60;;;0.80;;
68365;SDS011;55283;51.466;5.478;2023-06-04T02:24:45;1.70;;;1.20;;
68365;SDS011;55283;51.466;5.478;2023-06-04T02:27:12;1.73;;;1.05;;
68365;SDS011;55283;51.466;5.478;2023-06-04T02:29:39;1.25;;;1.00;;
68365;SDS011;55283;51.466;5.478;2023-06-04T02:32:05;1.10;;;1.00;;
68365;SDS011;55283;51.466;5.478;2023-06-04T02:34:31;1.30;;;1.10;;
68365;SDS011;55283;51.466;5.478;2023-06-04T02:36:56;1.60;;;0.90;;
68365;SDS011;55283;51.466;5.478;2023-06-04T02:39:23;2.83;;;1.27;;
68365;SDS011;55283;51.466;5.478;2023-06-04T02:41:48;1.43;;;1.10;;
68365;SDS011;55283;51.466;5.478;2023-06-04T02:44:14;1.77;;;1.00;;
68365;SDS011;55283;51.466;5.478;2023-06-04T02:46:39;1.13;;;1.00;;
68365;SDS011;55283;51.466;5.478;2023-06-04T02:49:05;4.73;;;1.23;;
68365;SDS011;55283;51.466;5.478;2023-06-04T02:51:30;1.00;;;1.00;;
68365;SDS011;55283;51.466;5.478;2023-06-04T02:53:56;3.17;;;1.08;;
68365;SDS011;55283;51.466;5.478;2023-06-04T02:56:24;1.90;;;0.97;;
68365;SDS011;55283;51.466;5.478;2023-06-04T03:01:21;1.30;;;1.20;;
68365;SDS011;55283;51.466;5.478;2023-06-04T03:03:51;0.70;;;0.70;;
68365;SDS011;55283;51.466;5.478;2023-06-04T03:06:17;0.90;;;0.90;;
68365;SDS011;55283;51.466;5.478;2023-06-04T03:08:45;1.63;;;1.10;;
68365;SDS011;55283;51.466;5.478;2023-06-04T03:11:11;1.43;;;1.23;;
68365;SDS011;55283;51.466;5.478;2023-06-04T03:13:37;0.90;;;0.90;;
68365;SDS011;55283;51.466;5.478;2023-06-04T03:16:06;1.47;;;1.30;;
68365;SDS011;55283;51.466;5.478;2023-06-04T03:18:41;1.42;;;1.00;;
68365;SDS011;55283;51.466;5.478;2023-06-04T03:21:07;2.85;;;1.10;;
68365;SDS011;55283;51.466;5.478;2023-06-04T03:23:35;1.20;;;0.90;;
68365;SDS011;55283;51.466;5.478;2023-06-04T03:26:01;1.10;;;1.00;;
68365;SDS011;55283;51.466;5.478;2023-06-04T03:28:29;1.03;;;1.00;;
68365;SDS011;55283;51.466;5.478;2023-06-04T03:30:55;1.45;;;1.10;;
68365;SDS011;55283;51.466;5.478;2023-06-04T03:33:21;1.00;;;0.90;;
68365;SDS011;55283;51.466;5.478;2023-06-04T03:35:46;1.63;;;0.90;;
68365;SDS011;55283;51.466;5.478;2023-06-04T03:38:13;1.37;;;1.10;;
68365;SDS011;55283;51.466;5.478;2023-06-04T03:40:39;1.50;;;1.10;;
68365;SDS011;55283;51.466;5.478;2023-06-04T03:43:04;1.00;;;1.00;;
68365;SDS011;55283;51.466;5.478;2023-06-04T03:45:30;1.20;;;1.10;;
68365;SDS011;55283;51.466;5.478;2023-06-04T03:47:55;1.25;;;0.90;;
68365;SDS011;55283;51.466;5.478;2023-06-04T03:50:21;1.57;;;1.00;;
68365;SDS011;55283;51.466;5.478;2023-06-04T03:52:48;3.27;;;1.30;;
68365;SDS011;55283;51.466;5.478;2023-06-04T03:55:14;1.93;;;1.23;;
68365;SDS011;55283;51.466;5.478;2023-06-04T03:57:39;1.37;;;1.07;;
68365;SDS011;55283;51.466;5.478;2023-06-04T04:00:05;1.50;;;1.40;;
68365;SDS011;55283;51.466;5.478;2023-06-04T04:02:31;1.20;;;1.10;;
68365;SDS011;55283;51.466;5.478;2023-06-04T04:04:57;1.13;;;1.10;;
68365;SDS011;55283;51.466;5.478;2023-06-04T04:07:23;3.70;;;1.27;;
68365;SDS011;55283;51.466;5.478;2023-06-04T04:09:49;2.58;;;1.10;;
68365;SDS011;55283;51.466;5.478;2023-06-04T04:12:16;2.53;;;1.00;;
68365;SDS011;55283;51.466;5.478;2023-06-04T04:14:41;1.10;;;1.00;;
68365;SDS011;55283;51.466;5.478;2023-06-04T04:17:06;1.15;;;0.90;;
68365;SDS011;55283;51.466;5.478;2023-06-04T04:19:32;2.40;;;1.03;;
68365;SDS011;55283;51.466;5.478;2023-06-04T04:21:58;1.60;;;0.90;;
68365;SDS011;55283;51.466;5.478;2023-06-04T04:26:49;3.53;;;1.27;;
68365;SDS011;55283;51.466;5.478;2023-06-04T04:29:17;2.38;;;1.05;;
68365;SDS011;55283;51.466;5.478;2023-06-04T04:31:47;1.35;;;1.10;;
68365;SDS011;55283;51.466;5.478;2023-06-04T04:34:14;2.27;;;1.10;;
68365;SDS011;55283;51.466;5.478;2023-06-04T04:36:40;3.17;;;1.20;;
68365;SDS011;55283;51.466;5.478;2023-06-04T04:39:07;3.17;;;0.90;;
68365;SDS011;55283;51.466;5.478;2023-06-04T04:41:33;1.02;;;1.00;;
68365;SDS011;55283;51.466;5.478;2023-06-04T04:44:04;1.30;;;1.07;;
68365;SDS011;55283;51.466;5.478;2023-06-04T04:46:32;3.65;;;0.82;;
68365;SDS011;55283;51.466;5.478;2023-06-04T04:48:58;2.20;;;1.10;;
68365;SDS011;55283;51.466;5.478;2023-06-04T04:51:23;2.85;;;1.40;;
68365;SDS011;55283;51.466;5.478;2023-06-04T04:53:49;3.83;;;1.27;;
68365;SDS011;55283;51.466;5.478;2023-06-04T04:56:14;4.03;;;1.23;;
68365;SDS011;55283;51.466;5.478;2023-06-04T04:58:39;2.43;;;1.20;;
68365;SDS011;55283;51.466;5.478;2023-06-04T05:01:05;2.07;;;1.30;;
68365;SDS011;55283;51.466;5.478;2023-06-04T05:03:30;1.63;;;1.40;;
68365;SDS011;55283;51.466;5.478;2023-06-04T05:05:58;3.57;;;1.30;;
68365;SDS011;55283;51.466;5.478;2023-06-04T05:08:23;1.20;;;1.10;;
68365;SDS011;55283;51.466;5.478;2023-06-04T05:10:50;1.37;;;1.20;;
68365;SDS011;55283;51.466;5.478;2023-06-04T05:13:18;2.67;;;1.30;;
68365;SDS011;55283;51.466;5.478;2023-06-04T05:15:44;2.30;;;1.30;;
68365;SDS011;55283;51.466;5.478;2023-06-04T05:18:10;1.52;;;1.40;;
68365;SDS011;55283;51.466;5.478;2023-06-04T05:20:35;3.00;;;1.30;;
68365;SDS011;55283;51.466;5.478;2023-06-04T05:23:02;1.70;;;1.23;;
68365;SDS011;55283;51.466;5.478;2023-06-04T05:25:30;1.73;;;1.30;;
68365;SDS011;55283;51.466;5.478;2023-06-04T05:27:56;1.45;;;1.30;;
68365;SDS011;55283;51.466;5.478;2023-06-04T05:30:22;9.60;;;1.40;;
68365;SDS011;55283;51.466;5.478;2023-06-04T05:32:47;3.13;;;1.10;;
68365;SDS011;55283;51.466;5.478;2023-06-04T05:35:15;6.15;;;1.25;;
68365;SDS011;55283;51.466;5.478;2023-06-04T05:37:41;4.40;;;1.45;;
68365;SDS011;55283;51.466;5.478;2023-06-04T05:40:07;4.37;;;1.60;;
68365;SDS011;55283;51.466;5.478;2023-06-04T05:42:34;4.60;;;1.58;;
68365;SDS011;55283;51.466;5.478;2023-06-04T05:44:59;3.93;;;1.50;;
68365;SDS011;55283;51.466;5.478;2023-06-04T05:47:25;6.00;;;1.92;;
68365;SDS011;55283;51.466;5.478;2023-06-04T05:49:53;4.37;;;2.00;;
68365;SDS011;55283;51.466;5.478;2023-06-04T05:52:19;3.03;;;1.90;;
68365;SDS011;55283;51.466;5.478;2023-06-04T05:54:44;4.28;;;1.80;;
68365;SDS011;55283;51.466;5.478;2023-06-04T05:57:10;4.53;;;2.13;;
68365;SDS011;55283;51.466;5.478;2023-06-04T05:59:35;5.67;;;1.80;;
68365;SDS011;55283;51.466;5.478;2023-06-04T06:02:01;6.13;;;2.47;;
68365;SDS011;55283;51.466;5.478;2023-06-04T06:04:27;4.43;;;2.30;;
68365;SDS011;55283;51.466;5.478;2023-06-04T06:06:55;3.65;;;1.90;;
68365;SDS011;55283;51.466;5.478;2023-06-04T06:09:21;2.60;;;1.98;;
68365;SDS011;55283;51.466;5.478;2023-06-04T06:11:46;4.70;;;2.17;;
68365;SDS011;55283;51.466;5.478;2023-06-04T06:14:12;4.50;;;2.00;;
68365;SDS011;55283;51.466;5.478;2023-06-04T06:16:37;7.53;;;2.40;;
68365;SDS011;55283;51.466;5.478;2023-06-04T06:19:03;4.13;;;1.87;;
68365;SDS011;55283;51.466;5.478;2023-06-04T06:21:28;3.97;;;1.80;;
68365;SDS011;55283;51.466;5.478;2023-06-04T06:23:54;6.43;;;2.30;;
68365;SDS011;55283;51.466;5.478;2023-06-04T06:26:19;3.70;;;1.95;;
68365;SDS011;55283;51.466;5.478;2023-06-04T06:28:45;5.77;;;1.90;;
68365;SDS011;55283;51.466;5.478;2023-06-04T06:31:10;7.95;;;2.00;;
68365;SDS011;55283;51.466;5.478;2023-06-04T06:33:36;2.90;;;1.93;;
68365;SDS011;55283;51.466;5.478;2023-06-04T06:36:06;3.72;;;1.77;;
68365;SDS011;55283;51.466;5.478;2023-06-04T06:38:37;3.83;;;1.93;;
68365;SDS011;55283;51.466;5.478;2023-06-04T06:41:02;3.20;;;2.05;;
68365;SDS011;55283;51.466;5.478;2023-06-04T06:43:27;2.83;;;1.93;;
68365;SDS011;55283;51.466;5.478;2023-06-04T06:45:53;3.93;;;2.00;;
68365;SDS011;55283;51.466;5.478;2023-06-04T06:48:18;5.47;;;1.70;;
68365;SDS011;55283;51.466;5.478;2023-06-04T06:50:46;3.88;;;1.83;;
68365;SDS011;55283;51.466;5.478;2023-06-04T06:53:15;6.82;;;2.10;;
68365;SDS011;55283;51.466;5.478;2023-06-04T06:55:42;3.70;;;2.10;;
68365;SDS011;55283;51.466;5.478;2023-06-04T06:58:08;3.43;;;2.10;;
68365;SDS011;55283;51.466;5.478;2023-06-04T07:00:33;3.42;;;1.85;;
68365;SDS011;55283;51.466;5.478;2023-06-04T07:03:01;3.80;;;2.10;;
68365;SDS011;55283;51.466;5.478;2023-06-04T07:05:26;3.23;;;1.80;;
68365;SDS011;55283;51.466;5.478;2023-06-04T07:07:52;4.00;;;1.48;;
68365;SDS011;55283;51.466;5.478;2023-06-04T07:10:17;2.10;;;1.60;;
68365;SDS011;55283;51.466;5.478;2023-06-04T07:12:43;2.40;;;1.60;;
68365;SDS011;55283;51.466;5.478;2023-06-04T07:15:10;1.73;;;1.30;;
68365;SDS011;55283;51.466;5.478;2023-06-04T07:17:36;2.30;;;1.33;;
68365;SDS011;55283;51.466;5.478;2023-06-04T07:20:01;1.98;;;1.52;;
68365;SDS011;55283;51.466;5.478;2023-06-04T07:22:27;3.90;;;1.30;;
68365;SDS011;55283;51.466;5.478;2023-06-04T07:24:52;3.00;;;1.33;;
68365;SDS011;55283;51.466;5.478;2023-06-04T07:27:18;3.30;;;1.50;;
68365;SDS011;55283;51.466;5.478;2023-06-04T07:29:51;2.38;;;1.25;;
68365;SDS011;55283;51.466;5.478;2023-06-04T07:32:17;2.90;;;1.50;;
68365;SDS011;55283;51.466;5.478;2023-06-04T07:34:42;2.27;;;1.40;;
68365;SDS011;55283;51.466;5.478;2023-06-04T07:37:08;1.80;;;1.30;;
68365;SDS011;55283;51.466;5.478;2023-06-04T07:39:34;3.50;;;1.58;;
68365;SDS011;55283;51.466;5.478;2023-06-04T07:42:00;3.13;;;1.50;;
68365;SDS011;55283;51.466;5.478;2023-06-04T07:44:25;3.10;;;1.40;;
68365;SDS011;55283;51.466;5.478;2023-06-04T07:46:51;1.30;;;1.20;;
68365;SDS011;55283;51.466;5.478;2023-06-04T07:49:16;1.93;;;1.60;;
68365;SDS011;55283;51.466;5.478;2023-06-04T07:51:41;2.13;;;1.20;;
68365;SDS011;55283;51.466;5.478;2023-06-04T07:54:07;1.73;;;1.40;;
68365;SDS011;55283;51.466;5.478;2023-06-04T07:56:32;2.07;;;1.30;;
68365;SDS011;55283;51.466;5.478;2023-06-04T07:58:58;2.07;;;1.33;;
68365;SDS011;55283;51.466;5.478;2023-06-04T08:01:23;1.80;;;1.60;;
68365;SDS011;55283;51.466;5.478;2023-06-04T08:03:49;1.70;;;1.23;;
68365;SDS011;55283;51.466;5.478;2023-06-04T08:06:15;2.15;;;1.30;;
68365;SDS011;55283;51.466;5.478;2023-06-04T08:08:43;1.43;;;1.20;;
68365;SDS011;55283;51.466;5.478;2023-06-04T08:11:15;3.35;;;1.42;;
68365;SDS011;55283;51.466;5.478;2023-06-04T08:13:40;1.85;;;1.50;;
68365;SDS011;55283;51.466;5.478;2023-06-04T08:16:09;1.50;;;1.30;;
68365;SDS011;55283;51.466;5.478;2023-06-04T08:18:38;1.83;;;1.50;;
68365;SDS011;55283;51.466;5.478;2023-06-04T08:21:04;1.98;;;1.20;;
68365;SDS011;55283;51.466;5.478;2023-06-04T08:23:33;1.33;;;1.23;;
68365;SDS011;55283;51.466;5.478;2023-06-04T08:25:58;1.97;;;1.40;;
68365;SDS011;55283;51.466;5.478;2023-06-04T08:28:24;1.40;;;1.27;;
68365;SDS011;55283;51.466;5.478;2023-06-04T08:30:51;1.40;;;1.20;;
68365;SDS011;55283;51.466;5.478;2023-06-04T08:33:17;1.40;;;1.30;;
68365;SDS011;55283;51.466;5.478;2023-06-04T08:35:42;1.93;;;1.33;;
68365;SDS011;55283;51.466;5.478;2023-06-04T08:38:07;2.03;;;1.50;;
68365;SDS011;55283;51.466;5.478;2023-06-04T08:40:33;1.30;;;1.20;;
68365;SDS011;55283;51.466;5.478;2023-06-04T08:43:01;2.92;;;1.40;;
68365;SDS011;55283;51.466;5.478;2023-06-04T08:45:27;1.73;;;1.60;;
68365;SDS011;55283;51.466;5.478;2023-06-04T08:47:57;1.50;;;1.40;;
68365;SDS011;55283;51.466;5.478;2023-06-04T08:50:25;1.33;;;1.23;;
68365;SDS011;55283;51.466;5.478;2023-06-04T08:52:54;1.33;;;1.20;;
68365;SDS011;55283;51.466;5.478;2023-06-04T08:55:21;2.17;;;1.25;;
68365;SDS011;55283;51.466;5.478;2023-06-04T08:57:48;1.47;;;1.37;;
68365;SDS011;55283;51.466;5.478;2023-06-04T09:00:15;1.88;;;1.40;;
68365;SDS011;55283;51.466;5.478;2023-06-04T09:02:44;1.55;;;1.35;;
68365;SDS011;55283;51.466;5.478;2023-06-04T09:05:11;1.87;;;1.20;;
68365;SDS011;55283;51.466;5.478;2023-06-04T09:07:44;2.20;;;1.50;;
68365;SDS011;55283;51.466;5.478;2023-06-04T09:10:12;1.67;;;1.30;;
68365;SDS011;55283;51.466;5.478;2023-06-04T09:12:42;1.33;;;1.23;;
68365;SDS011;55283;51.466;5.478;2023-06-04T09:15:11;1.50;;;1.30;;
68365;SDS011;55283;51.466;5.478;2023-06-04T09:17:37;1.80;;;1.40;;
68365;SDS011;55283;51.466;5.478;2023-06-04T09:20:05;1.47;;;1.30;;
68365;SDS011;55283;51.466;5.478;2023-06-04T09:22:33;1.30;;;1.20;;
68365;SDS011;55283;51.466;5.478;2023-06-04T09:25:06;2.63;;;1.60;;
68365;SDS011;55283;51.466;5.478;2023-06-04T09:27:43;1.38;;;1.13;;
68365;SDS011;55283;51.466;5.478;2023-06-04T09:30:09;1.63;;;1.07;;
68365;SDS011;55283;51.466;5.478;2023-06-04T09:32:42;1.13;;;1.10;;
68365;SDS011;55283;51.466;5.478;2023-06-04T09:37:41;1.30;;;1.20;;
68365;SDS011;55283;51.466;5.478;2023-06-04T09:40:08;1.98;;;1.30;;
68365;SDS011;55283;51.466;5.478;2023-06-04T09:42:44;1.65;;;1.40;;
68365;SDS011;55283;51.466;5.478;2023-06-04T09:45:31;1.90;;;1.30;;
68365;SDS011;55283;51.466;5.478;2023-06-04T09:47:58;1.20;;;1.10;;
68365;SDS011;55283;51.466;5.478;2023-06-04T09:50:29;1.30;;;1.20;;
68365;SDS011;55283;51.466;5.478;2023-06-04T09:52:57;1.25;;;1.15;;
68365;SDS011;55283;51.466;5.478;2023-06-04T09:55:26;1.23;;;1.13;;
68365;SDS011;55283;51.466;5.478;2023-06-04T09:57:52;1.35;;;1.25;;
68365;SDS011;55283;51.466;5.478;2023-06-04T10:00:18;1.20;;;1.10;;
68365;SDS011;55283;51.466;5.478;2023-06-04T10:02:55;1.80;;;1.40;;
68365;SDS011;55283;51.466;5.478;2023-06-04T10:05:28;2.28;;;1.25;;
68365;SDS011;55283;51.466;5.478;2023-06-04T10:07:57;1.33;;;1.23;;
68365;SDS011;55283;51.466;5.478;2023-06-04T10:10:26;1.30;;;1.20;;
68365;SDS011;55283;51.466;5.478;2023-06-04T10:12:54;1.13;;;1.02;;
68365;SDS011;55283;51.466;5.478;2023-06-04T10:15:27;1.33;;;1.20;;
68365;SDS011;55283;51.466;5.478;2023-06-04T10:17:53;1.50;;;1.40;;
68365;SDS011;55283;51.466;5.478;2023-06-04T10:20:20;1.45;;;1.10;;
68365;SDS011;55283;51.466;5.478;2023-06-04T10:22:46;1.35;;;1.25;;
68365;SDS011;55283;51.466;5.478;2023-06-04T10:25:13;1.20;;;1.10;;
68365;SDS011;55283;51.466;5.478;2023-06-04T10:27:45;1.30;;;1.20;;
68365;SDS011;55283;51.466;5.478;2023-06-04T10:30:11;1.38;;;1.25;;
68365;SDS011;55283;51.466;5.478;2023-06-04T10:32:39;1.17;;;1.07;;
68365;SDS011;55283;51.466;5.478;2023-06-04T10:35:05;1.30;;;1.10;;
68365;SDS011;55283;51.466;5.478;2023-06-04T10:37:37;1.40;;;1.30;;
68365;SDS011;55283;51.466;5.478;2023-06-04T10:40:02;1.90;;;1.20;;
68365;SDS011;55283;51.466;5.478;2023-06-04T10:42:37;1.30;;;1.20;;
68365;SDS011;55283;51.466;5.478;2023-06-04T10:45:06;1.30;;;1.20;;
68365;SDS011;55283;51.466;5.478;2023-06-04T10:47:33;1.20;;;1.10;;
68365;SDS011;55283;51.466;5.478;2023-06-04T10:50:12;1.20;;;1.10;;
68365;SDS011;55283;51.466;5.478;2023-06-04T10:52:39;1.33;;;1.23;;
68365;SDS011;55283;51.466;5.478;2023-06-04T10:55:19;1.20;;;1.10;;
68365;SDS011;55283;51.466;5.478;2023-06-04T10:57:53;1.40;;;1.30;;
68365;SDS011;55283;51.466;5.478;2023-06-04T11:00:22;1.58;;;1.40;;
68365;SDS011;55283;51.466;5.478;2023-06-04T11:02:54;1.17;;;1.07;;
68365;SDS011;55283;51.466;5.478;2023-06-04T11:05:32;1.40;;;1.30;;
68365;SDS011;55283;51.466;5.478;2023-06-04T11:08:10;1.75;;;1.10;;
68365;SDS011;55283;51.466;5.478;2023-06-04T11:10:39;1.40;;;1.30;;
68365;SDS011;55283;51.466;5.478;2023-06-04T11:13:06;1.25;;;1.15;;
68365;SDS011;55283;51.466;5.478;2023-06-04T11:15:41;1.30;;;1.08;;
68365;SDS011;55283;51.466;5.478;2023-06-04T11:18:18;1.30;;;1.20;;
68365;SDS011;55283;51.466;5.478;2023-06-04T11:20:49;1.40;;;1.10;;
68365;SDS011;55283;51.466;5.478;2023-06-04T11:23:23;1.45;;;1.30;;
68365;SDS011;55283;51.466;5.478;2023-06-04T11:25:48;1.60;;;1.30;;
68365;SDS011;55283;51.466;5.478;2023-06-04T11:28:17;1.33;;;1.23;;
68365;SDS011;55283;51.466;5.478;2023-06-04T11:30:43;1.30;;;1.20;;
68365;SDS011;55283;51.466;5.478;2023-06-04T11:33:09;1.40;;;1.30;;
68365;SDS011;55283;51.466;5.478;2023-06-04T11:35:41;1.07;;;1.07;;
68365;SDS011;55283;51.466;5.478;2023-06-04T11:38:09;1.30;;;1.20;;
68365;SDS011;55283;51.466;5.478;2023-06-04T11:40:35;1.20;;;1.10;;
68365;SDS011;55283;51.466;5.478;2023-06-04T11:43:01;1.30;;;1.20;;
68365;SDS011;55283;51.466;5.478;2023-06-04T11:45:27;1.30;;;1.10;;
68365;SDS011;55283;51.466;5.478;2023-06-04T11:47:55;1.17;;;1.08;;
68365;SDS011;55283;51.466;5.478;2023-06-04T11:50:22;1.10;;;1.00;;
68365;SDS011;55283;51.466;5.478;2023-06-04T11:52:51;1.27;;;1.17;;
68365;SDS011;55283;51.466;5.478;2023-06-04T11:55:17;1.25;;;1.13;;
68365;SDS011;55283;51.466;5.478;2023-06-04T11:57:46;1.17;;;1.07;;
68365;SDS011;55283;51.466;5.478;2023-06-04T12:00:12;1.13;;;1.02;;
68365;SDS011;55283;51.466;5.478;2023-06-04T12:02:48;1.25;;;1.15;;
68365;SDS011;55283;51.466;5.478;2023-06-04T12:05:18;1.20;;;1.10;;
68365;SDS011;55283;51.466;5.478;2023-06-04T12:07:49;1.30;;;1.20;;
68365;SDS011;55283;51.466;5.478;2023-06-04T12:10:16;1.30;;;1.20;;
68365;SDS011;55283;51.466;5.478;2023-06-04T12:12:45;1.23;;;1.13;;
68365;SDS011;55283;51.466;5.478;2023-06-04T12:15:12;1.30;;;1.20;;
68365;SDS011;55283;51.466;5.478;2023-06-04T12:17:50;1.10;;;1.00;;
68365;SDS011;55283;51.466;5.478;2023-06-04T12:20:31;1.00;;;1.00;;
68365;SDS011;55283;51.466;5.478;2023-06-04T12:22:57;1.03;;;1.03;;
68365;SDS011;55283;51.466;5.478;2023-06-04T12:25:29;1.00;;;1.00;;
68365;SDS011;55283;51.466;5.478;2023-06-04T12:27:55;1.20;;;1.10;;
68365;SDS011;55283;51.466;5.478;2023-06-04T12:30:23;1.20;;;1.10;;
68365;SDS011;55283;51.466;5.478;2023-06-04T12:33:00;1.20;;;1.10;;
68365;SDS011;55283;51.466;5.478;2023-06-04T12:35:28;1.37;;;1.23;;
68365;SDS011;55283;51.466;5.478;2023-06-04T12:37:54;1.10;;;1.10;;
68365;SDS011;55283;51.466;5.478;2023-06-04T12:40:21;1.30;;;1.20;;
68365;SDS011;55283;51.466;5.478;2023-06-04T12:42:49;1.30;;;1.20;;
68365;SDS011;55283;51.466;5.478;2023-06-04T12:45:17;1.40;;;1.30;;
68365;SDS011;55283;51.466;5.478;2023-06-04T12:47:45;1.23;;;1.10;;
68365;SDS011;55283;51.466;5.478;2023-06-04T12:50:13;1.15;;;1.05;;
68365;SDS011;55283;51.466;5.478;2023-06-04T12:52:38;0.90;;;0.90;;
68365;SDS011;55283;51.466;5.478;2023-06-04T12:55:06;1.30;;;1.20;;
68365;SDS011;55283;51.466;5.478;2023-06-04T12:57:32;1.10;;;1.00;;
68365;SDS011;55283;51.466;5.478;2023-06-04T12:59:57;1.20;;;1.10;;
68365;SDS011;55283;51.466;5.478;2023-06-04T13:02:25;1.20;;;1.10;;
68365;SDS011;55283;51.466;5.478;2023-06-04T13:04:53;1.20;;;1.10;;
68365;SDS011;55283;51.466;5.478;2023-06-04T13:07:21;1.10;;;1.00;;
68365;SDS011;55283;51.466;5.478;2023-06-04T13:09:46;1.10;;;1.10;;
68365;SDS011;55283;51.466;5.478;2023-06-04T13:12:12;1.00;;;1.00;;
68365;SDS011;55283;51.466;5.478;2023-06-04T13:14:38;1.00;;;1.00;;
68365;SDS011;55283;51.466;5.478;2023-06-04T13:17:03;0.97;;;0.90;;
68365;SDS011;55283;51.466;5.478;2023-06-04T13:19:38;1.30;;;1.10;;
68365;SDS011;55283;51.466;5.478;2023-06-04T13:22:03;1.20;;;1.02;;
68365;SDS011;55283;51.466;5.478;2023-06-04T13:24:31;1.30;;;1.00;;
68365;SDS011;55283;51.466;5.478;2023-06-04T13:26:57;1.20;;;1.10;;
68365;SDS011;55283;51.466;5.478;2023-06-04T13:29:23;1.20;;;1.10;;
68365;SDS011;55283;51.466;5.478;2023-06-04T13:31:48;1.15;;;1.15;;
68365;SDS011;55283;51.466;5.478;2023-06-04T13:34:17;1.20;;;1.10;;
68365;SDS011;55283;51.466;5.478;2023-06-04T13:36:43;1.00;;;1.00;;
68365;SDS011;55283;51.466;5.478;2023-06-04T13:39:17;1.00;;;1.00;;
68365;SDS011;55283;51.466;5.478;2023-06-04T13:41:42;1.00;;;1.00;;
68365;SDS011;55283;51.466;5.478;2023-06-04T13:44:08;1.20;;;1.10;;
68365;SDS011;55283;51.466;5.478;2023-06-04T13:46:33;1.57;;;1.10;;
68365;SDS011;55283;51.466;5.478;2023-06-04T13:48:58;1.10;;;1.10;;
68365;SDS011;55283;51.466;5.478;2023-06-04T13:51:27;1.27;;;1.17;;
68365;SDS011;55283;51.466;5.478;2023-06-04T13:53:55;1.20;;;1.10;;
68365;SDS011;55283;51.466;5.478;2023-06-04T13:56:23;1.20;;;1.10;;
68365;SDS011;55283;51.466;5.478;2023-06-04T13:58:50;1.00;;;1.00;;
68365;SDS011;55283;51.466;5.478;2023-06-04T14:01:15;1.23;;;1.13;;
68365;SDS011;55283;51.466;5.478;2023-06-04T14:03:43;1.20;;;1.10;;
68365;SDS011;55283;51.466;5.478;2023-06-04T14:06:09;1.00;;;1.00;;
68365;SDS011;55283;51.466;5.478;2023-06-04T14:08:40;1.27;;;1.17;;
68365;SDS011;55283;51.466;5.478;2023-06-04T14:11:05;1.00;;;1.00;;
68365;SDS011;55283;51.466;5.478;2023-06-04T14:13:31;1.15;;;1.05;;
68365;SDS011;55283;51.466;5.478;2023-06-04T14:15:56;1.20;;;1.10;;
68365;SDS011;55283;51.466;5.478;2023-06-04T14:18:22;0.90;;;0.90;;
68365;SDS011;55283;51.466;5.478;2023-06-04T14:20:49;1.20;;;1.10;;
68365;SDS011;55283;51.466;5.478;2023-06-04T14:23:15;7.13;;;1.30;;
68365;SDS011;55283;51.466;5.478;2023-06-04T14:25:41;2.38;;;0.90;;
68365;SDS011;55283;51.466;5.478;2023-06-04T14:28:07;1.17;;;1.07;;
68365;SDS011;55283;51.466;5.478;2023-06-04T14:30:32;0.98;;;0.95;;
68365;SDS011;55283;51.466;5.478;2023-06-04T14:32:58;1.47;;;0.90;;
68365;SDS011;55283;51.466;5.478;2023-06-04T14:35:23;2.23;;;1.03;;
68365;SDS011;55283;51.466;5.478;2023-06-04T14:37:48;3.30;;;1.00;;
68365;SDS011;55283;51.466;5.478;2023-06-04T14:40:16;6.07;;;1.30;;
68365;SDS011;55283;51.466;5.478;2023-06-04T14:42:41;2.80;;;0.93;;
68365;SDS011;55283;51.466;5.478;2023-06-04T14:45:07;1.57;;;1.10;;
68365;SDS011;55283;51.466;5.478;2023-06-04T14:47:33;3.33;;;1.10;;
68365;SDS011;55283;51.466;5.478;2023-06-04T14:49:58;4.83;;;1.20;;
68365;SDS011;55283;51.466;5.478;2023-06-04T14:52:26;1.20;;;1.10;;
68365;SDS011;55283;51.466;5.478;2023-06-04T14:54:53;1.17;;;0.90;;
68365;SDS011;55283;51.466;5.478;2023-06-04T14:57:19;5.70;;;1.23;;
68365;SDS011;55283;51.466;5.478;2023-06-04T14:59:45;2.50;;;1.00;;
68365;SDS011;55283;51.466;5.478;2023-06-04T15:02:13;3.40;;;1.10;;